sensor_id;sensor_type;location;lat;lon;timestamp;temperature;humidity
25949;DHT22;13961;51.178;4.448;2023-05-20T00:00:26;14.00;99.90
25949;DHT22;13961;51.178;4.448;2023-05-20T00:02:52;14.10;99.90
25949;DHT22;13961;51.178;4.448;2023-05-20T00:05:18;13.90;99.90
25949;DHT22;13961;51.178;4.448;2023-05-20T00:07:43;13.80;99.90
25949;DHT22;13961;51.178;4.448;2023-05-20T00:10:09;13.70;99.90
25949;DHT22;13961;51.178;4.448;2023-05-20T00:12:37;13.70;99.90
25949;DHT22;13961;51.178;4.448;2023-05-20T00:15:04;13.50;99.90
25949;DHT22;13961;51.178;4.448;2023-05-20T00:17:30;13.40;99.90
25949;DHT22;13961;51.178;4.448;2023-05-20T00:19:55;13.50;99.90
25949;DHT22;13961;51.178;4.448;2023-05-20T00:22:21;13.40;99.90
25949;DHT22;13961;51.178;4.448;2023-05-20T00:24:47;13.40;99.90
25949;DHT22;13961;51.178;4.448;2023-05-20T00:27:13;13.20;99.90
25949;DHT22;13961;51.178;4.448;2023-05-20T00:29:38;13.20;99.90
25949;DHT22;13961;51.178;4.448;2023-05-20T00:32:04;13.20;99.90
25949;DHT22;13961;51.178;4.448;2023-05-20T00:34:30;13.10;99.90
25949;DHT22;13961;51.178;4.448;2023-05-20T00:36:56;13.10;99.90
25949;DHT22;13961;51.178;4.448;2023-05-20T00:39:21;13.20;99.90
25949;DHT22;13961;51.178;4.448;2023-05-20T00:41:47;13.20;99.90
25949;DHT22;13961;51.178;4.448;2023-05-20T00:44:13;13.20;99.90
25949;DHT22;13961;51.178;4.448;2023-05-20T00:46:38;13.10;99.90
25949;DHT22;13961;51.178;4.448;2023-05-20T00:49:04;13.00;99.90
25949;DHT22;13961;51.178;4.448;2023-05-20T00:51:31;13.00;99.90
25949;DHT22;13961;51.178;4.448;2023-05-20T00:53:56;13.00;99.90
25949;DHT22;13961;51.178;4.448;2023-05-20T00:56:23;12.90;99.90
25949;DHT22;13961;51.178;4.448;2023-05-20T00:58:50;13.00;99.90
25949;DHT22;13961;51.178;4.448;2023-05-20T01:01:15;13.10;99.90
25949;DHT22;13961;51.178;4.448;2023-05-20T01:03:41;12.90;99.90
25949;DHT22;13961;51.178;4.448;2023-05-20T01:06:07;12.90;99.90
25949;DHT22;13961;51.178;4.448;2023-05-20T01:08:33;12.90;99.90
25949;DHT22;13961;51.178;4.448;2023-05-20T01:13:43;12.80;99.90
25949;DHT22;13961;51.178;4.448;2023-05-20T01:16:12;12.80;99.90
25949;DHT22;13961;51.178;4.448;2023-05-20T01:18:42;12.80;99.90
25949;DHT22;13961;51.178;4.448;2023-05-20T01:21:11;12.60;99.90
25949;DHT22;13961;51.178;4.448;2023-05-20T01:23:39;12.70;99.90
25949;DHT22;13961;51.178;4.448;2023-05-20T01:26:05;12.70;99.90
25949;DHT22;13961;51.178;4.448;2023-05-20T01:28:36;12.80;99.90
25949;DHT22;13961;51.178;4.448;2023-05-20T01:31:04;12.70;99.90
25949;DHT22;13961;51.178;4.448;2023-05-20T01:33:33;12.60;99.90
25949;DHT22;13961;51.178;4.448;2023-05-20T01:36:00;12.60;99.90
25949;DHT22;13961;51.178;4.448;2023-05-20T01:38:26;12.60;99.90
25949;DHT22;13961;51.178;4.448;2023-05-20T01:40:53;12.70;99.90
25949;DHT22;13961;51.178;4.448;2023-05-20T01:43:20;12.80;99.90
25949;DHT22;13961;51.178;4.448;2023-05-20T01:45:46;12.70;99.90
25949;DHT22;13961;51.178;4.448;2023-05-20T01:48:12;12.40;99.90
25949;DHT22;13961;51.178;4.448;2023-05-20T01:50:38;12.40;99.90
25949;DHT22;13961;51.178;4.448;2023-05-20T01:53:04;12.40;99.90
25949;DHT22;13961;51.178;4.448;2023-05-20T01:55:32;12.30;99.90
25949;DHT22;13961;51.178;4.448;2023-05-20T01:57:58;12.40;99.90
25949;DHT22;13961;51.178;4.448;2023-05-20T02:00:24;12.40;99.90
25949;DHT22;13961;51.178;4.448;2023-05-20T02:02:49;12.40;99.90
25949;DHT22;13961;51.178;4.448;2023-05-20T02:05:15;12.30;99.90
25949;DHT22;13961;51.178;4.448;2023-05-20T02:07:42;12.20;99.90
25949;DHT22;13961;51.178;4.448;2023-05-20T02:10:08;12.20;99.90
25949;DHT22;13961;51.178;4.448;2023-05-20T02:12:34;12.30;99.90
25949;DHT22;13961;51.178;4.448;2023-05-20T02:15:00;12.30;99.90
25949;DHT22;13961;51.178;4.448;2023-05-20T02:17:25;12.40;99.90
25949;DHT22;13961;51.178;4.448;2023-05-20T02:19:51;12.30;99.90
25949;DHT22;13961;51.178;4.448;2023-05-20T02:22:17;12.20;99.90
25949;DHT22;13961;51.178;4.448;2023-05-20T02:24:43;12.10;99.90
25949;DHT22;13961;51.178;4.448;2023-05-20T02:27:09;12.20;99.90
25949;DHT22;13961;51.178;4.448;2023-05-20T02:29:35;12.10;99.90
25949;DHT22;13961;51.178;4.448;2023-05-20T02:32:01;12.10;99.90
25949;DHT22;13961;51.178;4.448;2023-05-20T02:34:27;12.10;99.90
25949;DHT22;13961;51.178;4.448;2023-05-20T02:36:54;12.10;99.90
25949;DHT22;13961;51.178;4.448;2023-05-20T02:39:21;12.10;99.90
25949;DHT22;13961;51.178;4.448;2023-05-20T02:41:47;12.10;99.90
25949;DHT22;13961;51.178;4.448;2023-05-20T02:44:13;12.00;99.90
25949;DHT22;13961;51.178;4.448;2023-05-20T02:46:40;11.90;99.90
25949;DHT22;13961;51.178;4.448;2023-05-20T02:49:07;12.00;99.90
25949;DHT22;13961;51.178;4.448;2023-05-20T02:51:32;12.00;99.90
25949;DHT22;13961;51.178;4.448;2023-05-20T02:53:58;12.00;99.90
25949;DHT22;13961;51.178;4.448;2023-05-20T02:56:24;12.00;99.90
25949;DHT22;13961;51.178;4.448;2023-05-20T02:58:51;12.10;99.90
25949;DHT22;13961;51.178;4.448;2023-05-20T03:01:17;12.20;99.90
25949;DHT22;13961;51.178;4.448;2023-05-20T03:03:43;12.30;99.90
25949;DHT22;13961;51.178;4.448;2023-05-20T03:06:09;12.20;99.90
25949;DHT22;13961;51.178;4.448;2023-05-20T03:08:34;12.20;99.90
25949;DHT22;13961;51.178;4.448;2023-05-20T03:11:00;12.10;99.90
25949;DHT22;13961;51.178;4.448;2023-05-20T03:13:26;12.10;99.90
25949;DHT22;13961;51.178;4.448;2023-05-20T03:15:53;12.00;99.90
25949;DHT22;13961;51.178;4.448;2023-05-20T03:18:19;11.90;99.90
25949;DHT22;13961;51.178;4.448;2023-05-20T03:20:45;12.00;99.90
25949;DHT22;13961;51.178;4.448;2023-05-20T03:23:11;12.00;99.90
25949;DHT22;13961;51.178;4.448;2023-05-20T03:25:38;11.80;99.90
25949;DHT22;13961;51.178;4.448;2023-05-20T03:28:04;11.60;99.90
25949;DHT22;13961;51.178;4.448;2023-05-20T03:30:31;11.70;99.90
25949;DHT22;13961;51.178;4.448;2023-05-20T03:32:57;11.70;99.90
25949;DHT22;13961;51.178;4.448;2023-05-20T03:35:23;11.80;99.90
25949;DHT22;13961;51.178;4.448;2023-05-20T03:37:49;11.80;99.90
25949;DHT22;13961;51.178;4.448;2023-05-20T03:40:16;11.80;99.90
25949;DHT22;13961;51.178;4.448;2023-05-20T03:42:41;11.80;99.90
25949;DHT22;13961;51.178;4.448;2023-05-20T03:45:08;11.80;99.90
25949;DHT22;13961;51.178;4.448;2023-05-20T03:47:33;11.70;99.90
25949;DHT22;13961;51.178;4.448;2023-05-20T03:49:59;11.60;99.90
25949;DHT22;13961;51.178;4.448;2023-05-20T03:52:25;11.60;99.90
25949;DHT22;13961;51.178;4.448;2023-05-20T03:54:52;11.80;99.90
25949;DHT22;13961;51.178;4.448;2023-05-20T03:57:18;11.70;99.90
25949;DHT22;13961;51.178;4.448;2023-05-20T03:59:44;11.70;99.90
25949;DHT22;13961;51.178;4.448;2023-05-20T04:02:10;11.70;99.90
25949;DHT22;13961;51.178;4.448;2023-05-20T04:04:36;11.90;99.90
25949;DHT22;13961;51.178;4.448;2023-05-20T04:07:02;11.80;99.90
25949;DHT22;13961;51.178;4.448;2023-05-20T04:09:29;11.80;99.90
25949;DHT22;13961;51.178;4.448;2023-05-20T04:11:55;12.00;99.90
25949;DHT22;13961;51.178;4.448;2023-05-20T04:14:21;11.80;99.90
25949;DHT22;13961;51.178;4.448;2023-05-20T04:16:47;11.90;99.90
25949;DHT22;13961;51.178;4.448;2023-05-20T04:19:14;11.90;99.90
25949;DHT22;13961;51.178;4.448;2023-05-20T04:21:42;12.00;99.90
25949;DHT22;13961;51.178;4.448;2023-05-20T04:24:07;11.80;99.90
25949;DHT22;13961;51.178;4.448;2023-05-20T04:26:33;11.60;99.90
25949;DHT22;13961;51.178;4.448;2023-05-20T04:29:01;11.60;99.90
25949;DHT22;13961;51.178;4.448;2023-05-20T04:31:31;11.70;99.90
25949;DHT22;13961;51.178;4.448;2023-05-20T04:33:57;11.70;99.90
25949;DHT22;13961;51.178;4.448;2023-05-20T04:36:23;11.90;99.90
25949;DHT22;13961;51.178;4.448;2023-05-20T04:38:56;12.00;99.90
25949;DHT22;13961;51.178;4.448;2023-05-20T04:41:21;12.10;99.90
25949;DHT22;13961;51.178;4.448;2023-05-20T04:43:48;12.00;99.90
25949;DHT22;13961;51.178;4.448;2023-05-20T04:46:15;12.10;99.90
25949;DHT22;13961;51.178;4.448;2023-05-20T04:48:41;12.30;99.90
25949;DHT22;13961;51.178;4.448;2023-05-20T04:51:09;12.10;99.90
25949;DHT22;13961;51.178;4.448;2023-05-20T04:53:35;12.20;99.90
25949;DHT22;13961;51.178;4.448;2023-05-20T04:56:01;12.20;99.90
25949;DHT22;13961;51.178;4.448;2023-05-20T04:58:27;12.00;99.90
25949;DHT22;13961;51.178;4.448;2023-05-20T05:00:54;11.90;99.90
25949;DHT22;13961;51.178;4.448;2023-05-20T05:03:21;11.90;99.90
25949;DHT22;13961;51.178;4.448;2023-05-20T05:05:46;12.20;99.90
25949;DHT22;13961;51.178;4.448;2023-05-20T05:08:12;12.40;99.90
25949;DHT22;13961;51.178;4.448;2023-05-20T05:10:38;12.50;99.90
25949;DHT22;13961;51.178;4.448;2023-05-20T05:13:05;12.60;99.90
25949;DHT22;13961;51.178;4.448;2023-05-20T05:15:31;12.50;99.90
25949;DHT22;13961;51.178;4.448;2023-05-20T05:17:56;12.40;99.90
25949;DHT22;13961;51.178;4.448;2023-05-20T05:20:22;12.30;99.90
25949;DHT22;13961;51.178;4.448;2023-05-20T05:22:48;12.50;99.90
25949;DHT22;13961;51.178;4.448;2023-05-20T05:25:16;12.70;99.90
25949;DHT22;13961;51.178;4.448;2023-05-20T05:27:42;12.80;99.90
25949;DHT22;13961;51.178;4.448;2023-05-20T05:30:09;12.90;99.90
25949;DHT22;13961;51.178;4.448;2023-05-20T05:32:36;13.00;99.90
25949;DHT22;13961;51.178;4.448;2023-05-20T05:35:02;13.10;99.90
25949;DHT22;13961;51.178;4.448;2023-05-20T05:37:28;13.10;99.90
25949;DHT22;13961;51.178;4.448;2023-05-20T05:39:54;13.20;99.90
25949;DHT22;13961;51.178;4.448;2023-05-20T05:42:20;13.10;99.90
25949;DHT22;13961;51.178;4.448;2023-05-20T05:44:45;13.00;99.90
25949;DHT22;13961;51.178;4.448;2023-05-20T05:47:12;13.10;99.90
25949;DHT22;13961;51.178;4.448;2023-05-20T05:49:37;13.20;99.90
25949;DHT22;13961;51.178;4.448;2023-05-20T05:52:03;13.10;99.90
25949;DHT22;13961;51.178;4.448;2023-05-20T05:54:29;13.10;99.90
25949;DHT22;13961;51.178;4.448;2023-05-20T05:56:55;13.30;99.90
25949;DHT22;13961;51.178;4.448;2023-05-20T05:59:21;13.40;99.90
25949;DHT22;13961;51.178;4.448;2023-05-20T06:01:46;13.70;99.90
25949;DHT22;13961;51.178;4.448;2023-05-20T06:04:12;13.60;99.90
25949;DHT22;13961;51.178;4.448;2023-05-20T06:06:38;13.70;99.90
25949;DHT22;13961;51.178;4.448;2023-05-20T06:09:03;13.90;99.90
25949;DHT22;13961;51.178;4.448;2023-05-20T06:11:29;14.00;99.90
25949;DHT22;13961;51.178;4.448;2023-05-20T06:13:55;14.00;99.90
25949;DHT22;13961;51.178;4.448;2023-05-20T06:16:21;14.10;99.90
25949;DHT22;13961;51.178;4.448;2023-05-20T06:18:47;14.30;99.90
25949;DHT22;13961;51.178;4.448;2023-05-20T06:21:15;14.40;99.90
25949;DHT22;13961;51.178;4.448;2023-05-20T06:23:41;14.60;99.90
25949;DHT22;13961;51.178;4.448;2023-05-20T06:26:06;14.70;99.90
25949;DHT22;13961;51.178;4.448;2023-05-20T06:28:32;14.70;99.90
25949;DHT22;13961;51.178;4.448;2023-05-20T06:30:58;15.10;99.90
25949;DHT22;13961;51.178;4.448;2023-05-20T06:33:24;16.00;99.90
25949;DHT22;13961;51.178;4.448;2023-05-20T06:35:54;17.40;99.90
25949;DHT22;13961;51.178;4.448;2023-05-20T06:38:21;18.40;99.90
25949;DHT22;13961;51.178;4.448;2023-05-20T06:40:50;19.60;99.90
25949;DHT22;13961;51.178;4.448;2023-05-20T06:43:16;20.50;99.90
25949;DHT22;13961;51.178;4.448;2023-05-20T06:45:42;20.70;99.90
25949;DHT22;13961;51.178;4.448;2023-05-20T06:48:08;21.20;99.90
25949;DHT22;13961;51.178;4.448;2023-05-20T06:50:34;21.10;99.90
25949;DHT22;13961;51.178;4.448;2023-05-20T06:52:59;21.60;99.90
25949;DHT22;13961;51.178;4.448;2023-05-20T06:55:29;22.20;99.90
25949;DHT22;13961;51.178;4.448;2023-05-20T06:57:55;21.60;99.90
25949;DHT22;13961;51.178;4.448;2023-05-20T07:00:20;22.20;99.90
25949;DHT22;13961;51.178;4.448;2023-05-20T07:02:46;22.40;99.90
25949;DHT22;13961;51.178;4.448;2023-05-20T07:05:12;21.90;99.90
25949;DHT22;13961;51.178;4.448;2023-05-20T07:07:38;22.40;99.90
25949;DHT22;13961;51.178;4.448;2023-05-20T07:10:04;24.20;99.90
25949;DHT22;13961;51.178;4.448;2023-05-20T07:12:31;24.90;99.90
25949;DHT22;13961;51.178;4.448;2023-05-20T07:14:57;24.40;99.90
25949;DHT22;13961;51.178;4.448;2023-05-20T07:17:23;25.00;99.70
25949;DHT22;13961;51.178;4.448;2023-05-20T07:19:52;25.30;98.50
25949;DHT22;13961;51.178;4.448;2023-05-20T07:22:18;23.70;99.90
25949;DHT22;13961;51.178;4.448;2023-05-20T07:24:44;23.30;99.90
25949;DHT22;13961;51.178;4.448;2023-05-20T07:27:10;23.80;99.90
25949;DHT22;13961;51.178;4.448;2023-05-20T07:29:36;25.20;99.40
25949;DHT22;13961;51.178;4.448;2023-05-20T07:32:02;25.40;98.10
25949;DHT22;13961;51.178;4.448;2023-05-20T07:34:29;24.50;98.60
25949;DHT22;13961;51.178;4.448;2023-05-20T07:36:56;23.80;99.40
25949;DHT22;13961;51.178;4.448;2023-05-20T07:39:22;23.50;99.90
25949;DHT22;13961;51.178;4.448;2023-05-20T07:41:48;23.60;99.90
25949;DHT22;13961;51.178;4.448;2023-05-20T07:44:17;23.90;99.80
25949;DHT22;13961;51.178;4.448;2023-05-20T07:46:48;24.40;98.60
25949;DHT22;13961;51.178;4.448;2023-05-20T07:49:14;25.00;98.00
25949;DHT22;13961;51.178;4.448;2023-05-20T07:51:40;25.20;97.70
25949;DHT22;13961;51.178;4.448;2023-05-20T07:54:06;24.30;98.20
25949;DHT22;13961;51.178;4.448;2023-05-20T07:56:34;24.10;98.70
25949;DHT22;13961;51.178;4.448;2023-05-20T07:59:00;24.00;98.40
25949;DHT22;13961;51.178;4.448;2023-05-20T08:01:28;23.40;99.80
25949;DHT22;13961;51.178;4.448;2023-05-20T08:03:54;23.80;98.70
25949;DHT22;13961;51.178;4.448;2023-05-20T08:06:20;23.30;99.00
25949;DHT22;13961;51.178;4.448;2023-05-20T08:08:46;24.00;98.40
25949;DHT22;13961;51.178;4.448;2023-05-20T08:11:12;23.70;98.40
25949;DHT22;13961;51.178;4.448;2023-05-20T08:13:38;23.70;98.50
25949;DHT22;13961;51.178;4.448;2023-05-20T08:16:04;23.30;99.00
25949;DHT22;13961;51.178;4.448;2023-05-20T08:18:31;23.70;98.80
25949;DHT22;13961;51.178;4.448;2023-05-20T08:20:58;24.10;97.80
25949;DHT22;13961;51.178;4.448;2023-05-20T08:23:24;24.20;98.00
25949;DHT22;13961;51.178;4.448;2023-05-20T08:25:50;24.10;98.00
25949;DHT22;13961;51.178;4.448;2023-05-20T08:28:16;24.00;98.30
25949;DHT22;13961;51.178;4.448;2023-05-20T08:30:42;24.00;97.70
25949;DHT22;13961;51.178;4.448;2023-05-20T08:33:09;23.80;98.30
25949;DHT22;13961;51.178;4.448;2023-05-20T08:35:35;23.70;98.00
25949;DHT22;13961;51.178;4.448;2023-05-20T08:38:04;23.30;97.70
25949;DHT22;13961;51.178;4.448;2023-05-20T08:40:30;23.40;97.60
25949;DHT22;13961;51.178;4.448;2023-05-20T08:42:56;22.90;97.70
25949;DHT22;13961;51.178;4.448;2023-05-20T08:45:24;23.10;98.10
25949;DHT22;13961;51.178;4.448;2023-05-20T08:47:52;23.70;98.00
25949;DHT22;13961;51.178;4.448;2023-05-20T08:50:18;23.70;97.80
25949;DHT22;13961;51.178;4.448;2023-05-20T08:52:46;24.10;97.30
25949;DHT22;13961;51.178;4.448;2023-05-20T08:55:15;23.90;96.60
25949;DHT22;13961;51.178;4.448;2023-05-20T08:57:42;23.50;97.00
25949;DHT22;13961;51.178;4.448;2023-05-20T09:00:12;24.00;96.80
25949;DHT22;13961;51.178;4.448;2023-05-20T09:02:38;24.00;96.80
25949;DHT22;13961;51.178;4.448;2023-05-20T09:05:04;23.60;97.10
25949;DHT22;13961;51.178;4.448;2023-05-20T09:07:30;22.80;97.60
25949;DHT22;13961;51.178;4.448;2023-05-20T09:09:57;22.80;97.80
25949;DHT22;13961;51.178;4.448;2023-05-20T09:12:23;22.10;97.80
25949;DHT22;13961;51.178;4.448;2023-05-20T09:14:48;21.80;99.10
25949;DHT22;13961;51.178;4.448;2023-05-20T09:17:15;21.60;98.50
25949;DHT22;13961;51.178;4.448;2023-05-20T09:19:42;21.50;99.60
25949;DHT22;13961;51.178;4.448;2023-05-20T09:22:08;22.00;98.30
25949;DHT22;13961;51.178;4.448;2023-05-20T09:24:34;22.10;98.90
25949;DHT22;13961;51.178;4.448;2023-05-20T09:27:00;22.10;98.30
25949;DHT22;13961;51.178;4.448;2023-05-20T09:29:25;21.80;99.00
25949;DHT22;13961;51.178;4.448;2023-05-20T09:31:54;21.00;99.70
25949;DHT22;13961;51.178;4.448;2023-05-20T09:34:20;20.60;99.90
25949;DHT22;13961;51.178;4.448;2023-05-20T09:36:49;20.20;99.90
25949;DHT22;13961;51.178;4.448;2023-05-20T09:39:21;20.00;99.90
25949;DHT22;13961;51.178;4.448;2023-05-20T09:41:57;20.30;99.90
25949;DHT22;13961;51.178;4.448;2023-05-20T09:44:26;20.30;99.90
25949;DHT22;13961;51.178;4.448;2023-05-20T09:46:55;20.40;99.90
25949;DHT22;13961;51.178;4.448;2023-05-20T09:49:21;20.40;99.90
25949;DHT22;13961;51.178;4.448;2023-05-20T09:51:48;20.20;99.90
25949;DHT22;13961;51.178;4.448;2023-05-20T09:54:17;20.30;99.90
25949;DHT22;13961;51.178;4.448;2023-05-20T09:56:45;20.40;99.90
25949;DHT22;13961;51.178;4.448;2023-05-20T09:59:15;20.30;99.90
25949;DHT22;13961;51.178;4.448;2023-05-20T10:01:42;20.40;99.90
25949;DHT22;13961;51.178;4.448;2023-05-20T10:04:09;20.50;99.90
25949;DHT22;13961;51.178;4.448;2023-05-20T10:09:58;20.60;99.90
25949;DHT22;13961;51.178;4.448;2023-05-20T10:15:42;20.60;99.90
25949;DHT22;13961;51.178;4.448;2023-05-20T10:21:20;20.80;99.90
25949;DHT22;13961;51.178;4.448;2023-05-20T10:23:52;20.50;99.90
25949;DHT22;13961;51.178;4.448;2023-05-20T10:26:18;20.30;99.90
25949;DHT22;13961;51.178;4.448;2023-05-20T10:28:45;20.50;99.90
25949;DHT22;13961;51.178;4.448;2023-05-20T10:31:20;20.50;99.90
25949;DHT22;13961;51.178;4.448;2023-05-20T10:33:47;20.70;99.90
25949;DHT22;13961;51.178;4.448;2023-05-20T10:36:25;20.70;99.90
25949;DHT22;13961;51.178;4.448;2023-05-20T10:38:55;20.80;99.90
25949;DHT22;13961;51.178;4.448;2023-05-20T10:41:24;20.80;99.90
25949;DHT22;13961;51.178;4.448;2023-05-20T10:44:04;20.60;99.90
25949;DHT22;13961;51.178;4.448;2023-05-20T10:46:32;20.50;99.90
25949;DHT22;13961;51.178;4.448;2023-05-20T10:48:58;20.90;99.90
25949;DHT22;13961;51.178;4.448;2023-05-20T10:51:24;20.90;99.90
25949;DHT22;13961;51.178;4.448;2023-05-20T10:53:54;21.10;99.90
25949;DHT22;13961;51.178;4.448;2023-05-20T10:56:24;21.30;99.90
25949;DHT22;13961;51.178;4.448;2023-05-20T10:58:51;21.40;99.90
25949;DHT22;13961;51.178;4.448;2023-05-20T11:01:17;21.60;99.90
25949;DHT22;13961;51.178;4.448;2023-05-20T11:03:46;21.30;99.90
25949;DHT22;13961;51.178;4.448;2023-05-20T11:06:14;21.50;99.90
25949;DHT22;13961;51.178;4.448;2023-05-20T11:08:40;21.60;99.90
25949;DHT22;13961;51.178;4.448;2023-05-20T11:11:06;21.30;99.90
25949;DHT22;13961;51.178;4.448;2023-05-20T11:13:35;21.40;99.90
25949;DHT22;13961;51.178;4.448;2023-05-20T11:16:01;21.40;99.90
25949;DHT22;13961;51.178;4.448;2023-05-20T11:18:27;21.50;99.90
25949;DHT22;13961;51.178;4.448;2023-05-20T11:20:57;21.40;99.90
25949;DHT22;13961;51.178;4.448;2023-05-20T11:23:28;21.40;99.90
25949;DHT22;13961;51.178;4.448;2023-05-20T11:25:55;21.40;99.90
25949;DHT22;13961;51.178;4.448;2023-05-20T11:28:22;21.50;99.90
25949;DHT22;13961;51.178;4.448;2023-05-20T11:30:50;21.80;99.90
25949;DHT22;13961;51.178;4.448;2023-05-20T11:33:16;21.90;99.90
25949;DHT22;13961;51.178;4.448;2023-05-20T11:35:47;21.90;99.90
25949;DHT22;13961;51.178;4.448;2023-05-20T11:38:14;21.90;99.70
25949;DHT22;13961;51.178;4.448;2023-05-20T11:40:49;21.80;99.90
25949;DHT22;13961;51.178;4.448;2023-05-20T11:43:15;21.70;99.90
25949;DHT22;13961;51.178;4.448;2023-05-20T11:45:43;21.50;99.90
25949;DHT22;13961;51.178;4.448;2023-05-20T11:48:10;21.80;99.90
25949;DHT22;13961;51.178;4.448;2023-05-20T11:50:38;21.90;99.90
25949;DHT22;13961;51.178;4.448;2023-05-20T11:53:15;22.00;99.90
25949;DHT22;13961;51.178;4.448;2023-05-20T11:55:54;21.80;99.90
25949;DHT22;13961;51.178;4.448;2023-05-20T11:58:24;21.90;99.90
25949;DHT22;13961;51.178;4.448;2023-05-20T12:00:50;21.80;99.90
25949;DHT22;13961;51.178;4.448;2023-05-20T12:03:16;21.70;99.90
25949;DHT22;13961;51.178;4.448;2023-05-20T12:05:42;21.90;99.90
25949;DHT22;13961;51.178;4.448;2023-05-20T12:08:09;21.90;99.90
25949;DHT22;13961;51.178;4.448;2023-05-20T12:10:35;22.20;99.90
25949;DHT22;13961;51.178;4.448;2023-05-20T12:13:02;22.30;99.90
25949;DHT22;13961;51.178;4.448;2023-05-20T12:15:28;22.30;99.90
25949;DHT22;13961;51.178;4.448;2023-05-20T12:17:55;22.10;99.90
25949;DHT22;13961;51.178;4.448;2023-05-20T12:20:22;22.20;99.90
25949;DHT22;13961;51.178;4.448;2023-05-20T12:22:49;22.30;99.90
25949;DHT22;13961;51.178;4.448;2023-05-20T12:25:16;22.00;99.90
25949;DHT22;13961;51.178;4.448;2023-05-20T12:27:47;21.70;99.90
25949;DHT22;13961;51.178;4.448;2023-05-20T12:30:20;21.70;99.90
25949;DHT22;13961;51.178;4.448;2023-05-20T12:32:47;21.80;99.90
25949;DHT22;13961;51.178;4.448;2023-05-20T12:35:14;22.00;99.90
25949;DHT22;13961;51.178;4.448;2023-05-20T12:37:41;22.40;99.90
25949;DHT22;13961;51.178;4.448;2023-05-20T12:40:08;22.30;99.90
25949;DHT22;13961;51.178;4.448;2023-05-20T12:42:40;22.10;99.90
25949;DHT22;13961;51.178;4.448;2023-05-20T12:45:10;22.20;99.90
25949;DHT22;13961;51.178;4.448;2023-05-20T12:47:38;22.40;99.90
25949;DHT22;13961;51.178;4.448;2023-05-20T12:50:07;22.60;99.90
25949;DHT22;13961;51.178;4.448;2023-05-20T12:52:35;22.50;99.90
25949;DHT22;13961;51.178;4.448;2023-05-20T12:55:01;22.60;99.90
25949;DHT22;13961;51.178;4.448;2023-05-20T12:57:27;22.70;99.90
25949;DHT22;13961;51.178;4.448;2023-05-20T12:59:52;22.80;99.90
25949;DHT22;13961;51.178;4.448;2023-05-20T13:02:18;22.80;99.90
25949;DHT22;13961;51.178;4.448;2023-05-20T13:04:45;22.60;99.90
25949;DHT22;13961;51.178;4.448;2023-05-20T13:07:11;22.80;99.90
25949;DHT22;13961;51.178;4.448;2023-05-20T13:09:37;22.60;99.70
25949;DHT22;13961;51.178;4.448;2023-05-20T13:12:03;22.10;99.90
25949;DHT22;13961;51.178;4.448;2023-05-20T13:14:28;22.20;99.90
25949;DHT22;13961;51.178;4.448;2023-05-20T13:16:54;22.30;99.90
25949;DHT22;13961;51.178;4.448;2023-05-20T13:19:21;22.50;99.90
25949;DHT22;13961;51.178;4.448;2023-05-20T13:21:53;22.50;99.90
25949;DHT22;13961;51.178;4.448;2023-05-20T13:24:19;22.70;99.90
25949;DHT22;13961;51.178;4.448;2023-05-20T13:26:45;22.80;99.90
25949;DHT22;13961;51.178;4.448;2023-05-20T13:29:13;22.90;99.90
25949;DHT22;13961;51.178;4.448;2023-05-20T13:32:05;23.20;99.20
25949;DHT22;13961;51.178;4.448;2023-05-20T13:34:31;23.50;99.90
25949;DHT22;13961;51.178;4.448;2023-05-20T13:36:58;23.80;99.10
25949;DHT22;13961;51.178;4.448;2023-05-20T13:39:23;23.80;98.80
25949;DHT22;13961;51.178;4.448;2023-05-20T13:41:49;23.80;99.00
25949;DHT22;13961;51.178;4.448;2023-05-20T13:44:15;23.70;99.00
25949;DHT22;13961;51.178;4.448;2023-05-20T13:46:40;23.40;99.40
25949;DHT22;13961;51.178;4.448;2023-05-20T13:49:06;22.80;99.80
25949;DHT22;13961;51.178;4.448;2023-05-20T13:51:32;22.80;99.80
25949;DHT22;13961;51.178;4.448;2023-05-20T13:53:57;23.10;99.40
25949;DHT22;13961;51.178;4.448;2023-05-20T13:56:23;23.50;98.90
25949;DHT22;13961;51.178;4.448;2023-05-20T13:58:49;23.70;99.30
25949;DHT22;13961;51.178;4.448;2023-05-20T14:01:15;23.70;98.90
25949;DHT22;13961;51.178;4.448;2023-05-20T14:03:41;23.40;99.30
25949;DHT22;13961;51.178;4.448;2023-05-20T14:06:07;23.50;99.50
25949;DHT22;13961;51.178;4.448;2023-05-20T14:08:33;23.70;99.00
25949;DHT22;13961;51.178;4.448;2023-05-20T14:10:59;23.80;99.70
25949;DHT22;13961;51.178;4.448;2023-05-20T14:13:25;23.40;99.20
25949;DHT22;13961;51.178;4.448;2023-05-20T14:15:51;23.20;99.50
25949;DHT22;13961;51.178;4.448;2023-05-20T14:18:17;23.40;99.50
25949;DHT22;13961;51.178;4.448;2023-05-20T14:20:44;23.60;99.20
25949;DHT22;13961;51.178;4.448;2023-05-20T14:23:10;23.30;99.30
25949;DHT22;13961;51.178;4.448;2023-05-20T14:25:36;23.40;99.70
25949;DHT22;13961;51.178;4.448;2023-05-20T14:28:02;23.40;99.50
25949;DHT22;13961;51.178;4.448;2023-05-20T14:30:28;22.90;99.70
25949;DHT22;13961;51.178;4.448;2023-05-20T14:32:54;22.70;99.90
25949;DHT22;13961;51.178;4.448;2023-05-20T14:35:20;22.50;99.90
25949;DHT22;13961;51.178;4.448;2023-05-20T14:37:45;22.80;99.90
25949;DHT22;13961;51.178;4.448;2023-05-20T14:40:11;22.80;99.90
25949;DHT22;13961;51.178;4.448;2023-05-20T14:42:37;22.50;99.90
25949;DHT22;13961;51.178;4.448;2023-05-20T14:45:04;23.00;99.90
25949;DHT22;13961;51.178;4.448;2023-05-20T14:47:30;23.40;99.60
25949;DHT22;13961;51.178;4.448;2023-05-20T14:49:56;23.40;99.50
25949;DHT22;13961;51.178;4.448;2023-05-20T14:52:22;23.60;99.70
25949;DHT22;13961;51.178;4.448;2023-05-20T14:54:48;23.30;99.30
25949;DHT22;13961;51.178;4.448;2023-05-20T14:57:14;23.20;99.60
25949;DHT22;13961;51.178;4.448;2023-05-20T14:59:43;23.10;99.80
25949;DHT22;13961;51.178;4.448;2023-05-20T15:02:09;23.10;99.80
25949;DHT22;13961;51.178;4.448;2023-05-20T15:04:38;22.70;99.90
25949;DHT22;13961;51.178;4.448;2023-05-20T15:07:04;22.60;99.90
25949;DHT22;13961;51.178;4.448;2023-05-20T15:09:30;22.70;99.90
25949;DHT22;13961;51.178;4.448;2023-05-20T15:11:56;22.70;99.90
25949;DHT22;13961;51.178;4.448;2023-05-20T15:14:21;22.30;99.90
25949;DHT22;13961;51.178;4.448;2023-05-20T15:16:47;22.60;99.90
25949;DHT22;13961;51.178;4.448;2023-05-20T15:19:13;22.50;99.90
25949;DHT22;13961;51.178;4.448;2023-05-20T15:21:38;22.40;99.90
25949;DHT22;13961;51.178;4.448;2023-05-20T15:24:05;22.40;99.90
25949;DHT22;13961;51.178;4.448;2023-05-20T15:26:30;22.50;99.90
25949;DHT22;13961;51.178;4.448;2023-05-20T15:28:57;22.60;99.90
25949;DHT22;13961;51.178;4.448;2023-05-20T15:31:22;22.40;99.90
25949;DHT22;13961;51.178;4.448;2023-05-20T15:33:48;22.20;99.90
25949;DHT22;13961;51.178;4.448;2023-05-20T15:36:14;22.20;99.90
25949;DHT22;13961;51.178;4.448;2023-05-20T15:38:41;22.00;99.90